sensor_id;sensor_type;location;lat;lon;timestamp;temperature;humidity
9223;DHT22;7557;51.698;3.942;2022-07-06T00:01:16;18.40;98.40
9223;DHT22;7557;51.698;3.942;2022-07-06T00:03:43;18.40;98.40
9223;DHT22;7557;51.698;3.942;2022-07-06T00:06:11;18.40;98.40
9223;DHT22;7557;51.698;3.942;2022-07-06T00:08:39;18.40;98.60
9223;DHT22;7557;51.698;3.942;2022-07-06T00:11:06;18.40;98.70
9223;DHT22;7557;51.698;3.942;2022-07-06T00:13:33;18.40;98.70
9223;DHT22;7557;51.698;3.942;2022-07-06T00:16:00;18.40;98.60
9223;DHT22;7557;51.698;3.942;2022-07-06T00:18:27;18.30;98.90
9223;DHT22;7557;51.698;3.942;2022-07-06T00:20:55;18.30;98.60
9223;DHT22;7557;51.698;3.942;2022-07-06T00:23:23;18.30;98.50
9223;DHT22;7557;51.698;3.942;2022-07-06T00:25:50;18.30;98.50
9223;DHT22;7557;51.698;3.942;2022-07-06T00:28:18;18.30;98.50
9223;DHT22;7557;51.698;3.942;2022-07-06T00:30:45;18.30;98.40
9223;DHT22;7557;51.698;3.942;2022-07-06T00:33:12;18.30;98.40
9223;DHT22;7557;51.698;3.942;2022-07-06T00:35:39;18.30;98.40
9223;DHT22;7557;51.698;3.942;2022-07-06T00:38:06;18.30;98.40
9223;DHT22;7557;51.698;3.942;2022-07-06T00:40:35;18.30;98.30
9223;DHT22;7557;51.698;3.942;2022-07-06T00:43:02;18.30;98.30
9223;DHT22;7557;51.698;3.942;2022-07-06T00:45:29;18.30;98.30
9223;DHT22;7557;51.698;3.942;2022-07-06T00:47:56;18.30;98.30
9223;DHT22;7557;51.698;3.942;2022-07-06T00:50:23;18.30;98.40
9223;DHT22;7557;51.698;3.942;2022-07-06T00:52:53;18.30;98.40
9223;DHT22;7557;51.698;3.942;2022-07-06T00:55:22;18.20;98.30
9223;DHT22;7557;51.698;3.942;2022-07-06T00:57:52;18.20;98.30
9223;DHT22;7557;51.698;3.942;2022-07-06T01:00:21;18.20;98.30
9223;DHT22;7557;51.698;3.942;2022-07-06T01:02:49;18.20;98.20
9223;DHT22;7557;51.698;3.942;2022-07-06T01:05:16;18.20;98.20
9223;DHT22;7557;51.698;3.942;2022-07-06T01:07:45;18.20;98.40
9223;DHT22;7557;51.698;3.942;2022-07-06T01:10:14;18.20;98.40
9223;DHT22;7557;51.698;3.942;2022-07-06T01:12:43;18.20;98.30
9223;DHT22;7557;51.698;3.942;2022-07-06T01:15:14;18.10;98.20
9223;DHT22;7557;51.698;3.942;2022-07-06T01:17:43;18.10;98.20
9223;DHT22;7557;51.698;3.942;2022-07-06T01:20:13;18.10;98.30
9223;DHT22;7557;51.698;3.942;2022-07-06T01:22:41;18.10;98.40
9223;DHT22;7557;51.698;3.942;2022-07-06T01:25:08;18.10;98.80
9223;DHT22;7557;51.698;3.942;2022-07-06T01:27:36;18.10;98.30
9223;DHT22;7557;51.698;3.942;2022-07-06T01:30:06;18.00;98.20
9223;DHT22;7557;51.698;3.942;2022-07-06T01:32:33;17.90;98.20
9223;DHT22;7557;51.698;3.942;2022-07-06T01:35:00;17.90;98.30
9223;DHT22;7557;51.698;3.942;2022-07-06T01:37:29;17.80;98.30
9223;DHT22;7557;51.698;3.942;2022-07-06T01:39:58;17.80;98.30
9223;DHT22;7557;51.698;3.942;2022-07-06T01:42:27;17.80;98.30
9223;DHT22;7557;51.698;3.942;2022-07-06T01:44:54;17.80;98.30
9223;DHT22;7557;51.698;3.942;2022-07-06T01:47:22;17.80;98.80
9223;DHT22;7557;51.698;3.942;2022-07-06T01:49:49;17.70;98.50
9223;DHT22;7557;51.698;3.942;2022-07-06T01:52:16;17.70;98.60
9223;DHT22;7557;51.698;3.942;2022-07-06T01:54:45;17.70;98.60
9223;DHT22;7557;51.698;3.942;2022-07-06T01:57:12;17.70;98.70
9223;DHT22;7557;51.698;3.942;2022-07-06T01:59:39;17.60;98.80
9223;DHT22;7557;51.698;3.942;2022-07-06T02:02:06;17.60;98.90
9223;DHT22;7557;51.698;3.942;2022-07-06T02:04:33;17.60;98.90
9223;DHT22;7557;51.698;3.942;2022-07-06T02:07:00;17.60;99.10
9223;DHT22;7557;51.698;3.942;2022-07-06T02:09:28;17.60;99.20
9223;DHT22;7557;51.698;3.942;2022-07-06T02:11:56;17.60;99.20
9223;DHT22;7557;51.698;3.942;2022-07-06T02:14:23;17.70;99.10
9223;DHT22;7557;51.698;3.942;2022-07-06T02:16:50;17.70;99.20
9223;DHT22;7557;51.698;3.942;2022-07-06T02:19:17;17.70;99.20
9223;DHT22;7557;51.698;3.942;2022-07-06T02:21:44;17.70;99.20
9223;DHT22;7557;51.698;3.942;2022-07-06T02:24:11;17.80;99.10
9223;DHT22;7557;51.698;3.942;2022-07-06T02:26:39;17.80;98.90
9223;DHT22;7557;51.698;3.942;2022-07-06T02:29:07;17.80;98.80
9223;DHT22;7557;51.698;3.942;2022-07-06T02:31:34;17.80;98.80
9223;DHT22;7557;51.698;3.942;2022-07-06T02:34:01;17.80;98.80
9223;DHT22;7557;51.698;3.942;2022-07-06T02:36:28;17.80;99.00
9223;DHT22;7557;51.698;3.942;2022-07-06T02:38:55;17.80;99.20
9223;DHT22;7557;51.698;3.942;2022-07-06T02:41:23;17.80;99.20
9223;DHT22;7557;51.698;3.942;2022-07-06T02:43:50;17.80;99.30
9223;DHT22;7557;51.698;3.942;2022-07-06T02:46:18;17.90;99.20
9223;DHT22;7557;51.698;3.942;2022-07-06T02:48:45;17.90;99.10
9223;DHT22;7557;51.698;3.942;2022-07-06T02:51:13;17.90;99.10
9223;DHT22;7557;51.698;3.942;2022-07-06T02:53:40;17.90;98.90
9223;DHT22;7557;51.698;3.942;2022-07-06T02:56:07;17.90;99.10
9223;DHT22;7557;51.698;3.942;2022-07-06T02:58:34;17.90;99.20
9223;DHT22;7557;51.698;3.942;2022-07-06T03:01:01;17.90;99.30
9223;DHT22;7557;51.698;3.942;2022-07-06T03:03:30;17.90;99.20
9223;DHT22;7557;51.698;3.942;2022-07-06T03:05:57;17.90;99.50
9223;DHT22;7557;51.698;3.942;2022-07-06T03:08:24;17.90;99.60
9223;DHT22;7557;51.698;3.942;2022-07-06T03:10:51;17.90;99.70
9223;DHT22;7557;51.698;3.942;2022-07-06T03:13:18;17.90;99.70
9223;DHT22;7557;51.698;3.942;2022-07-06T03:15:45;17.90;99.70
9223;DHT22;7557;51.698;3.942;2022-07-06T03:18:12;17.90;99.70
9223;DHT22;7557;51.698;3.942;2022-07-06T03:20:40;18.00;99.80
9223;DHT22;7557;51.698;3.942;2022-07-06T03:23:08;18.00;99.70
9223;DHT22;7557;51.698;3.942;2022-07-06T03:25:35;18.00;99.60
9223;DHT22;7557;51.698;3.942;2022-07-06T03:28:02;18.00;99.60
9223;DHT22;7557;51.698;3.942;2022-07-06T03:30:30;18.00;99.70
9223;DHT22;7557;51.698;3.942;2022-07-06T03:32:57;18.00;99.70
9223;DHT22;7557;51.698;3.942;2022-07-06T03:35:24;18.00;99.70
9223;DHT22;7557;51.698;3.942;2022-07-06T03:37:52;18.00;99.80
9223;DHT22;7557;51.698;3.942;2022-07-06T03:40:20;18.00;99.70
9223;DHT22;7557;51.698;3.942;2022-07-06T03:42:47;18.00;99.70
9223;DHT22;7557;51.698;3.942;2022-07-06T03:45:14;18.00;99.70
9223;DHT22;7557;51.698;3.942;2022-07-06T03:47:41;18.00;99.70
9223;DHT22;7557;51.698;3.942;2022-07-06T03:50:09;18.00;99.70
9223;DHT22;7557;51.698;3.942;2022-07-06T03:52:36;18.00;99.70
9223;DHT22;7557;51.698;3.942;2022-07-06T03:55:08;18.00;99.60
9223;DHT22;7557;51.698;3.942;2022-07-06T03:57:36;18.00;99.60
9223;DHT22;7557;51.698;3.942;2022-07-06T04:00:05;18.00;99.60
9223;DHT22;7557;51.698;3.942;2022-07-06T04:02:32;18.10;99.60
9223;DHT22;7557;51.698;3.942;2022-07-06T04:04:59;18.10;99.50
9223;DHT22;7557;51.698;3.942;2022-07-06T04:07:26;18.10;99.40
9223;DHT22;7557;51.698;3.942;2022-07-06T04:09:53;18.10;99.40
9223;DHT22;7557;51.698;3.942;2022-07-06T04:12:22;18.20;99.30
9223;DHT22;7557;51.698;3.942;2022-07-06T04:14:49;18.20;99.30
9223;DHT22;7557;51.698;3.942;2022-07-06T04:17:16;18.20;99.20
9223;DHT22;7557;51.698;3.942;2022-07-06T04:20:00;18.20;99.30
9223;DHT22;7557;51.698;3.942;2022-07-06T04:22:27;18.20;99.30
9223;DHT22;7557;51.698;3.942;2022-07-06T04:24:55;18.30;99.40
9223;DHT22;7557;51.698;3.942;2022-07-06T04:27:23;18.30;99.40
9223;DHT22;7557;51.698;3.942;2022-07-06T04:29:50;18.20;99.30
9223;DHT22;7557;51.698;3.942;2022-07-06T04:32:19;18.20;99.40
9223;DHT22;7557;51.698;3.942;2022-07-06T04:34:46;18.10;99.50
9223;DHT22;7557;51.698;3.942;2022-07-06T04:37:13;18.10;99.60
9223;DHT22;7557;51.698;3.942;2022-07-06T04:39:40;18.10;99.60
9223;DHT22;7557;51.698;3.942;2022-07-06T04:42:07;18.00;99.60
9223;DHT22;7557;51.698;3.942;2022-07-06T04:44:36;18.00;99.60
9223;DHT22;7557;51.698;3.942;2022-07-06T04:47:04;18.00;99.60
9223;DHT22;7557;51.698;3.942;2022-07-06T04:49:31;18.00;99.60
9223;DHT22;7557;51.698;3.942;2022-07-06T04:51:58;18.10;99.60
9223;DHT22;7557;51.698;3.942;2022-07-06T04:54:26;18.00;99.70
9223;DHT22;7557;51.698;3.942;2022-07-06T04:56:53;18.00;99.70
9223;DHT22;7557;51.698;3.942;2022-07-06T04:59:20;18.00;99.70
9223;DHT22;7557;51.698;3.942;2022-07-06T05:01:48;18.00;99.80
9223;DHT22;7557;51.698;3.942;2022-07-06T05:04:16;18.00;99.90
9223;DHT22;7557;51.698;3.942;2022-07-06T05:06:44;18.00;99.90
9223;DHT22;7557;51.698;3.942;2022-07-06T05:09:11;18.10;99.90
9223;DHT22;7557;51.698;3.942;2022-07-06T05:11:39;18.20;99.90
9223;DHT22;7557;51.698;3.942;2022-07-06T05:14:06;18.30;99.90
9223;DHT22;7557;51.698;3.942;2022-07-06T05:16:34;18.50;99.90
9223;DHT22;7557;51.698;3.942;2022-07-06T05:19:02;18.60;99.90
9223;DHT22;7557;51.698;3.942;2022-07-06T05:21:29;18.70;99.90
9223;DHT22;7557;51.698;3.942;2022-07-06T05:23:57;18.80;99.90
9223;DHT22;7557;51.698;3.942;2022-07-06T05:26:24;19.00;99.90
9223;DHT22;7557;51.698;3.942;2022-07-06T05:28:51;19.10;99.90
9223;DHT22;7557;51.698;3.942;2022-07-06T05:31:18;19.30;99.90
9223;DHT22;7557;51.698;3.942;2022-07-06T05:33:45;19.40;99.90
9223;DHT22;7557;51.698;3.942;2022-07-06T05:36:13;19.50;99.90
9223;DHT22;7557;51.698;3.942;2022-07-06T05:38:41;19.60;99.90
9223;DHT22;7557;51.698;3.942;2022-07-06T05:41:08;19.80;99.90
9223;DHT22;7557;51.698;3.942;2022-07-06T05:43:35;20.00;99.90
9223;DHT22;7557;51.698;3.942;2022-07-06T05:46:02;20.40;99.90
9223;DHT22;7557;51.698;3.942;2022-07-06T05:48:30;20.60;99.90
9223;DHT22;7557;51.698;3.942;2022-07-06T05:51:16;20.80;99.80
9223;DHT22;7557;51.698;3.942;2022-07-06T05:53:43;21.00;99.30
9223;DHT22;7557;51.698;3.942;2022-07-06T05:56:10;21.00;98.50
9223;DHT22;7557;51.698;3.942;2022-07-06T05:58:37;21.10;98.00
9223;DHT22;7557;51.698;3.942;2022-07-06T06:01:04;21.10;98.40
9223;DHT22;7557;51.698;3.942;2022-07-06T06:03:33;21.20;98.30
9223;DHT22;7557;51.698;3.942;2022-07-06T06:06:00;21.30;98.10
9223;DHT22;7557;51.698;3.942;2022-07-06T06:08:29;21.40;97.90
9223;DHT22;7557;51.698;3.942;2022-07-06T06:10:56;21.40;97.60
9223;DHT22;7557;51.698;3.942;2022-07-06T06:13:23;21.50;97.30
9223;DHT22;7557;51.698;3.942;2022-07-06T06:15:50;21.60;96.80
9223;DHT22;7557;51.698;3.942;2022-07-06T06:18:17;21.70;96.70
9223;DHT22;7557;51.698;3.942;2022-07-06T06:20:45;21.80;96.50
9223;DHT22;7557;51.698;3.942;2022-07-06T06:23:12;22.00;96.20
9223;DHT22;7557;51.698;3.942;2022-07-06T06:25:41;22.10;95.10
9223;DHT22;7557;51.698;3.942;2022-07-06T06:28:09;22.20;94.50
9223;DHT22;7557;51.698;3.942;2022-07-06T06:30:38;22.20;94.10
9223;DHT22;7557;51.698;3.942;2022-07-06T06:33:10;22.20;94.10
9223;DHT22;7557;51.698;3.942;2022-07-06T06:35:38;22.30;93.50
9223;DHT22;7557;51.698;3.942;2022-07-06T06:38:05;22.30;93.30
9223;DHT22;7557;51.698;3.942;2022-07-06T06:40:32;22.30;93.30
9223;DHT22;7557;51.698;3.942;2022-07-06T06:43:01;22.40;93.00
9223;DHT22;7557;51.698;3.942;2022-07-06T06:45:28;22.40;92.90
9223;DHT22;7557;51.698;3.942;2022-07-06T06:47:55;22.40;93.00
9223;DHT22;7557;51.698;3.942;2022-07-06T06:50:22;22.40;93.00
9223;DHT22;7557;51.698;3.942;2022-07-06T06:52:50;22.50;92.60
9223;DHT22;7557;51.698;3.942;2022-07-06T06:55:17;22.50;92.50
9223;DHT22;7557;51.698;3.942;2022-07-06T06:57:45;22.50;92.40
9223;DHT22;7557;51.698;3.942;2022-07-06T07:00:14;22.60;92.40
9223;DHT22;7557;51.698;3.942;2022-07-06T07:02:41;22.70;92.20
9223;DHT22;7557;51.698;3.942;2022-07-06T07:05:09;22.80;92.50
9223;DHT22;7557;51.698;3.942;2022-07-06T07:07:36;23.00;92.40
9223;DHT22;7557;51.698;3.942;2022-07-06T07:10:04;23.10;91.60
9223;DHT22;7557;51.698;3.942;2022-07-06T07:12:32;23.10;91.10
9223;DHT22;7557;51.698;3.942;2022-07-06T07:14:59;23.10;91.40
9223;DHT22;7557;51.698;3.942;2022-07-06T07:17:27;23.20;91.60
9223;DHT22;7557;51.698;3.942;2022-07-06T07:19:55;23.40;91.40
9223;DHT22;7557;51.698;3.942;2022-07-06T07:22:23;23.50;91.50
9223;DHT22;7557;51.698;3.942;2022-07-06T07:24:51;23.80;90.80
9223;DHT22;7557;51.698;3.942;2022-07-06T07:27:18;23.80;90.50
9223;DHT22;7557;51.698;3.942;2022-07-06T07:29:46;23.90;90.60
9223;DHT22;7557;51.698;3.942;2022-07-06T07:32:14;24.00;90.00
9223;DHT22;7557;51.698;3.942;2022-07-06T07:34:42;24.20;90.60
9223;DHT22;7557;51.698;3.942;2022-07-06T07:37:09;24.40;90.10
9223;DHT22;7557;51.698;3.942;2022-07-06T07:39:36;24.40;89.30
9223;DHT22;7557;51.698;3.942;2022-07-06T07:42:04;24.40;90.00
9223;DHT22;7557;51.698;3.942;2022-07-06T07:44:31;24.30;90.10
9223;DHT22;7557;51.698;3.942;2022-07-06T07:46:58;24.40;89.90
9223;DHT22;7557;51.698;3.942;2022-07-06T07:49:25;24.30;87.00
9223;DHT22;7557;51.698;3.942;2022-07-06T07:51:54;24.10;87.70
9223;DHT22;7557;51.698;3.942;2022-07-06T07:54:21;24.00;89.20
9223;DHT22;7557;51.698;3.942;2022-07-06T07:56:48;24.00;88.60
9223;DHT22;7557;51.698;3.942;2022-07-06T07:59:15;24.10;87.30
9223;DHT22;7557;51.698;3.942;2022-07-06T08:01:43;24.10;87.60
9223;DHT22;7557;51.698;3.942;2022-07-06T08:04:10;24.20;87.00
9223;DHT22;7557;51.698;3.942;2022-07-06T08:06:37;24.20;86.70
9223;DHT22;7557;51.698;3.942;2022-07-06T08:09:05;24.20;86.90
9223;DHT22;7557;51.698;3.942;2022-07-06T08:11:33;24.20;86.90
9223;DHT22;7557;51.698;3.942;2022-07-06T08:14:00;24.20;86.90
9223;DHT22;7557;51.698;3.942;2022-07-06T08:16:28;24.20;87.30
9223;DHT22;7557;51.698;3.942;2022-07-06T08:18:55;24.10;87.60
9223;DHT22;7557;51.698;3.942;2022-07-06T08:21:22;24.10;88.20
9223;DHT22;7557;51.698;3.942;2022-07-06T08:23:49;24.10;89.00
9223;DHT22;7557;51.698;3.942;2022-07-06T08:26:18;24.00;88.80
9223;DHT22;7557;51.698;3.942;2022-07-06T08:28:45;24.10;89.10
9223;DHT22;7557;51.698;3.942;2022-07-06T08:31:12;24.20;88.90
9223;DHT22;7557;51.698;3.942;2022-07-06T08:33:40;24.40;88.60
9223;DHT22;7557;51.698;3.942;2022-07-06T08:36:07;24.50;87.70
9223;DHT22;7557;51.698;3.942;2022-07-06T08:38:34;24.50;87.60
9223;DHT22;7557;51.698;3.942;2022-07-06T08:41:02;24.40;87.10
9223;DHT22;7557;51.698;3.942;2022-07-06T08:43:31;24.30;84.80
9223;DHT22;7557;51.698;3.942;2022-07-06T08:45:58;24.20;87.00
9223;DHT22;7557;51.698;3.942;2022-07-06T08:48:27;24.20;88.60
9223;DHT22;7557;51.698;3.942;2022-07-06T08:50:59;24.20;87.30
9223;DHT22;7557;51.698;3.942;2022-07-06T08:53:26;24.40;87.30
9223;DHT22;7557;51.698;3.942;2022-07-06T08:55:53;24.70;86.90
9223;DHT22;7557;51.698;3.942;2022-07-06T08:58:21;24.90;86.20
9223;DHT22;7557;51.698;3.942;2022-07-06T09:00:51;24.90;87.20
9223;DHT22;7557;51.698;3.942;2022-07-06T09:03:19;24.90;87.10
9223;DHT22;7557;51.698;3.942;2022-07-06T09:05:47;24.80;86.70
9223;DHT22;7557;51.698;3.942;2022-07-06T09:08:14;24.80;88.40
9223;DHT22;7557;51.698;3.942;2022-07-06T09:10:42;24.90;89.10
9223;DHT22;7557;51.698;3.942;2022-07-06T09:13:09;25.00;89.20
9223;DHT22;7557;51.698;3.942;2022-07-06T09:15:37;25.10;89.10
9223;DHT22;7557;51.698;3.942;2022-07-06T09:18:07;25.20;88.30
9223;DHT22;7557;51.698;3.942;2022-07-06T09:20:34;25.30;87.80
9223;DHT22;7557;51.698;3.942;2022-07-06T09:23:03;25.30;86.60
9223;DHT22;7557;51.698;3.942;2022-07-06T09:25:31;25.30;88.70
9223;DHT22;7557;51.698;3.942;2022-07-06T09:27:59;25.40;88.20
9223;DHT22;7557;51.698;3.942;2022-07-06T09:30:28;25.50;88.00
9223;DHT22;7557;51.698;3.942;2022-07-06T09:32:57;25.60;88.20
9223;DHT22;7557;51.698;3.942;2022-07-06T09:35:26;25.70;87.40
9223;DHT22;7557;51.698;3.942;2022-07-06T09:38:01;25.90;86.90
9223;DHT22;7557;51.698;3.942;2022-07-06T09:40:30;25.90;87.00
9223;DHT22;7557;51.698;3.942;2022-07-06T09:43:08;25.80;86.60
9223;DHT22;7557;51.698;3.942;2022-07-06T09:45:36;25.70;85.70
9223;DHT22;7557;51.698;3.942;2022-07-06T09:48:09;25.70;85.70
9223;DHT22;7557;51.698;3.942;2022-07-06T09:50:42;25.80;85.70
9223;DHT22;7557;51.698;3.942;2022-07-06T09:53:11;25.90;87.40
9223;DHT22;7557;51.698;3.942;2022-07-06T09:55:42;26.00;87.50
9223;DHT22;7557;51.698;3.942;2022-07-06T09:58:09;26.00;85.80
9223;DHT22;7557;51.698;3.942;2022-07-06T10:00:36;25.90;86.00
9223;DHT22;7557;51.698;3.942;2022-07-06T10:03:05;25.80;85.30
9223;DHT22;7557;51.698;3.942;2022-07-06T10:05:32;25.90;86.30
9223;DHT22;7557;51.698;3.942;2022-07-06T10:08:01;25.90;86.00
9223;DHT22;7557;51.698;3.942;2022-07-06T10:10:32;25.90;85.90
9223;DHT22;7557;51.698;3.942;2022-07-06T10:12:59;25.80;86.40
9223;DHT22;7557;51.698;3.942;2022-07-06T10:15:28;25.70;87.40
9223;DHT22;7557;51.698;3.942;2022-07-06T10:17:58;25.80;88.10
9223;DHT22;7557;51.698;3.942;2022-07-06T10:20:28;25.80;87.60
9223;DHT22;7557;51.698;3.942;2022-07-06T10:22:59;25.70;88.30
9223;DHT22;7557;51.698;3.942;2022-07-06T10:25:28;25.60;87.80
9223;DHT22;7557;51.698;3.942;2022-07-06T10:27:56;25.70;86.60
9223;DHT22;7557;51.698;3.942;2022-07-06T10:30:24;25.70;87.40
9223;DHT22;7557;51.698;3.942;2022-07-06T10:32:52;25.90;87.30
9223;DHT22;7557;51.698;3.942;2022-07-06T10:35:21;26.00;87.20
9223;DHT22;7557;51.698;3.942;2022-07-06T10:38:03;26.00;87.30
9223;DHT22;7557;51.698;3.942;2022-07-06T10:40:37;26.00;87.40
9223;DHT22;7557;51.698;3.942;2022-07-06T10:43:22;26.00;87.90
9223;DHT22;7557;51.698;3.942;2022-07-06T10:45:51;25.90;88.00
9223;DHT22;7557;51.698;3.942;2022-07-06T10:48:20;26.00;87.70
9223;DHT22;7557;51.698;3.942;2022-07-06T10:50:51;26.00;88.40
9223;DHT22;7557;51.698;3.942;2022-07-06T10:53:22;26.10;88.30
9223;DHT22;7557;51.698;3.942;2022-07-06T10:55:52;26.40;88.00
9223;DHT22;7557;51.698;3.942;2022-07-06T10:58:49;26.60;87.40
9223;DHT22;7557;51.698;3.942;2022-07-06T11:01:17;26.60;87.30
9223;DHT22;7557;51.698;3.942;2022-07-06T11:03:46;26.50;88.10
9223;DHT22;7557;51.698;3.942;2022-07-06T11:06:15;26.50;88.20
9223;DHT22;7557;51.698;3.942;2022-07-06T11:08:44;26.70;88.60
9223;DHT22;7557;51.698;3.942;2022-07-06T11:11:14;26.90;89.30
9223;DHT22;7557;51.698;3.942;2022-07-06T11:13:53;27.00;89.70
9223;DHT22;7557;51.698;3.942;2022-07-06T11:16:21;27.10;88.20
9223;DHT22;7557;51.698;3.942;2022-07-06T11:19:02;27.00;87.90
9223;DHT22;7557;51.698;3.942;2022-07-06T11:21:38;26.90;86.40
9223;DHT22;7557;51.698;3.942;2022-07-06T11:24:07;26.70;86.70
9223;DHT22;7557;51.698;3.942;2022-07-06T11:26:36;26.60;88.30
9223;DHT22;7557;51.698;3.942;2022-07-06T11:29:05;26.50;89.10
9223;DHT22;7557;51.698;3.942;2022-07-06T11:31:34;26.60;89.90
9223;DHT22;7557;51.698;3.942;2022-07-06T11:34:03;26.70;89.40
9223;DHT22;7557;51.698;3.942;2022-07-06T11:36:31;26.70;89.30
9223;DHT22;7557;51.698;3.942;2022-07-06T11:38:58;26.80;88.70
9223;DHT22;7557;51.698;3.942;2022-07-06T11:41:26;26.70;88.30
9223;DHT22;7557;51.698;3.942;2022-07-06T11:43:55;26.60;89.40
9223;DHT22;7557;51.698;3.942;2022-07-06T11:46:24;26.50;89.90
9223;DHT22;7557;51.698;3.942;2022-07-06T11:48:52;26.60;90.20
9223;DHT22;7557;51.698;3.942;2022-07-06T11:51:20;26.60;90.30
9223;DHT22;7557;51.698;3.942;2022-07-06T11:53:49;26.60;90.00
9223;DHT22;7557;51.698;3.942;2022-07-06T11:56:17;26.60;88.60
9223;DHT22;7557;51.698;3.942;2022-07-06T11:58:49;26.40;87.70
9223;DHT22;7557;51.698;3.942;2022-07-06T12:01:18;26.30;86.70
9223;DHT22;7557;51.698;3.942;2022-07-06T12:03:45;26.20;89.20
9223;DHT22;7557;51.698;3.942;2022-07-06T12:06:15;26.30;89.60
9223;DHT22;7557;51.698;3.942;2022-07-06T12:08:44;26.40;88.80
9223;DHT22;7557;51.698;3.942;2022-07-06T12:11:17;26.50;87.90
9223;DHT22;7557;51.698;3.942;2022-07-06T12:13:45;26.60;88.40
9223;DHT22;7557;51.698;3.942;2022-07-06T12:16:13;26.60;87.20
9223;DHT22;7557;51.698;3.942;2022-07-06T12:18:44;26.70;88.40
9223;DHT22;7557;51.698;3.942;2022-07-06T12:21:14;26.60;87.30
9223;DHT22;7557;51.698;3.942;2022-07-06T12:23:44;26.50;88.30
9223;DHT22;7557;51.698;3.942;2022-07-06T12:26:12;26.40;89.40
9223;DHT22;7557;51.698;3.942;2022-07-06T12:28:39;26.20;88.00
9223;DHT22;7557;51.698;3.942;2022-07-06T12:31:07;26.10;86.90
9223;DHT22;7557;51.698;3.942;2022-07-06T12:33:34;26.00;87.40
9223;DHT22;7557;51.698;3.942;2022-07-06T12:36:14;25.90;88.00
9223;DHT22;7557;51.698;3.942;2022-07-06T12:38:45;25.90;88.50
9223;DHT22;7557;51.698;3.942;2022-07-06T12:41:30;25.90;88.40
9223;DHT22;7557;51.698;3.942;2022-07-06T12:44:03;25.90;88.70
9223;DHT22;7557;51.698;3.942;2022-07-06T12:46:32;25.80;88.30
9223;DHT22;7557;51.698;3.942;2022-07-06T12:49:01;25.80;89.00
9223;DHT22;7557;51.698;3.942;2022-07-06T12:51:55;25.70;89.50
9223;DHT22;7557;51.698;3.942;2022-07-06T12:54:23;25.70;89.20
9223;DHT22;7557;51.698;3.942;2022-07-06T12:57:06;25.70;89.70
9223;DHT22;7557;51.698;3.942;2022-07-06T12:59:35;25.70;89.70
9223;DHT22;7557;51.698;3.942;2022-07-06T13:02:04;25.60;90.00
9223;DHT22;7557;51.698;3.942;2022-07-06T13:04:32;25.60;90.10
9223;DHT22;7557;51.698;3.942;2022-07-06T13:07:02;25.50;90.20
9223;DHT22;7557;51.698;3.942;2022-07-06T13:09:32;25.40;90.20
9223;DHT22;7557;51.698;3.942;2022-07-06T13:11:59;25.30;90.50
9223;DHT22;7557;51.698;3.942;2022-07-06T13:14:26;25.30;90.60
9223;DHT22;7557;51.698;3.942;2022-07-06T13:16:53;25.30;91.00
9223;DHT22;7557;51.698;3.942;2022-07-06T13:19:20;25.30;90.80
9223;DHT22;7557;51.698;3.942;2022-07-06T13:21:48;25.20;90.60
9223;DHT22;7557;51.698;3.942;2022-07-06T13:24:16;25.20;90.70
9223;DHT22;7557;51.698;3.942;2022-07-06T13:26:43;25.20;91.10
9223;DHT22;7557;51.698;3.942;2022-07-06T13:29:12;25.20;90.40
9223;DHT22;7557;51.698;3.942;2022-07-06T13:31:40;25.10;91.20
9223;DHT22;7557;51.698;3.942;2022-07-06T13:34:07;25.10;91.80
9223;DHT22;7557;51.698;3.942;2022-07-06T13:36:35;25.10;92.20
9223;DHT22;7557;51.698;3.942;2022-07-06T13:39:03;25.00;92.30
9223;DHT22;7557;51.698;3.942;2022-07-06T13:41:32;25.00;92.70
9223;DHT22;7557;51.698;3.942;2022-07-06T13:44:00;25.10;92.10
9223;DHT22;7557;51.698;3.942;2022-07-06T13:46:28;25.10;92.00
9223;DHT22;7557;51.698;3.942;2022-07-06T13:48:56;25.00;92.10
9223;DHT22;7557;51.698;3.942;2022-07-06T13:51:23;24.90;92.50
9223;DHT22;7557;51.698;3.942;2022-07-06T13:53:50;24.80;92.50
9223;DHT22;7557;51.698;3.942;2022-07-06T13:56:18;24.80;92.70
9223;DHT22;7557;51.698;3.942;2022-07-06T13:58:49;24.80;92.60
9223;DHT22;7557;51.698;3.942;2022-07-06T14:01:16;24.80;92.40
9223;DHT22;7557;51.698;3.942;2022-07-06T14:03:43;24.70;92.50
9223;DHT22;7557;51.698;3.942;2022-07-06T14:06:11;24.70;92.40
9223;DHT22;7557;51.698;3.942;2022-07-06T14:08:40;24.60;92.40
9223;DHT22;7557;51.698;3.942;2022-07-06T14:11:10;24.50;92.50
9223;DHT22;7557;51.698;3.942;2022-07-06T14:13:37;24.50;92.50
9223;DHT22;7557;51.698;3.942;2022-07-06T14:16:07;24.50;92.70
9223;DHT22;7557;51.698;3.942;2022-07-06T14:18:34;24.60;92.10
9223;DHT22;7557;51.698;3.942;2022-07-06T14:21:02;24.60;92.10
9223;DHT22;7557;51.698;3.942;2022-07-06T14:23:30;24.50;92.00
9223;DHT22;7557;51.698;3.942;2022-07-06T14:25:57;24.40;92.30
9223;DHT22;7557;51.698;3.942;2022-07-06T14:28:25;24.40;92.20
9223;DHT22;7557;51.698;3.942;2022-07-06T14:30:52;24.30;92.20
9223;DHT22;7557;51.698;3.942;2022-07-06T14:33:21;24.20;92.80
9223;DHT22;7557;51.698;3.942;2022-07-06T14:35:49;24.10;92.90
9223;DHT22;7557;51.698;3.942;2022-07-06T14:38:18;24.10;92.80
9223;DHT22;7557;51.698;3.942;2022-07-06T14:40:45;23.90;93.20
9223;DHT22;7557;51.698;3.942;2022-07-06T14:43:13;23.80;93.60
9223;DHT22;7557;51.698;3.942;2022-07-06T14:45:42;23.70;93.80
9223;DHT22;7557;51.698;3.942;2022-07-06T14:48:09;23.70;93.80
9223;DHT22;7557;51.698;3.942;2022-07-06T14:50:38;23.70;94.00
9223;DHT22;7557;51.698;3.942;2022-07-06T14:53:05;23.80;94.40
9223;DHT22;7557;51.698;3.942;2022-07-06T14:55:32;23.80;93.90
9223;DHT22;7557;51.698;3.942;2022-07-06T14:58:00;23.80;93.90
9223;DHT22;7557;51.698;3.942;2022-07-06T15:00:27;23.70;94.00
9223;DHT22;7557;51.698;3.942;2022-07-06T15:02:54;23.70;94.20
9223;DHT22;7557;51.698;3.942;2022-07-06T15:05:22;23.70;94.00
9223;DHT22;7557;51.698;3.942;2022-07-06T15:07:50;23.60;93.90
9223;DHT22;7557;51.698;3.942;2022-07-06T15:10:17;23.60;93.80
9223;DHT22;7557;51.698;3.942;2022-07-06T15:12:44;23.60;93.70
9223;DHT22;7557;51.698;3.942;2022-07-06T15:15:13;23.60;93.70
9223;DHT22;7557;51.698;3.942;2022-07-06T15:17:40;23.60;94.10
9223;DHT22;7557;51.698;3.942;2022-07-06T15:20:08;23.60;94.30
9223;DHT22;7557;51.698;3.942;2022-07-06T15:22:36;23.60;94.80
9223;DHT22;7557;51.698;3.942;2022-07-06T15:25:06;23.50;95.40
9223;DHT22;7557;51.698;3.942;2022-07-06T15:27:34;23.60;95.60
9223;DHT22;7557;51.698;3.942;2022-07-06T15:30:01;23.70;95.70
9223;DHT22;7557;51.698;3.942;2022-07-06T15:32:28;23.70;95.90
9223;DHT22;7557;51.698;3.942;2022-07-06T15:34:55;23.60;96.00
9223;DHT22;7557;51.698;3.942;2022-07-06T15:37:23;23.70;96.10
9223;DHT22;7557;51.698;3.942;2022-07-06T15:39:50;23.60;96.40
9223;DHT22;7557;51.698;3.942;2022-07-06T15:42:19;23.50;96.70
9223;DHT22;7557;51.698;3.942;2022-07-06T15:44:46;23.50;97.00
9223;DHT22;7557;51.698;3.942;2022-07-06T15:47:16;23.40;97.10
9223;DHT22;7557;51.698;3.942;2022-07-06T15:49:43;23.30;97.20
9223;DHT22;7557;51.698;3.942;2022-07-06T15:52:11;23.20;97.60
9223;DHT22;7557;51.698;3.942;2022-07-06T15:54:38;23.10;97.60
9223;DHT22;7557;51.698;3.942;2022-07-06T15:57:05;23.00;97.90
9223;DHT22;7557;51.698;3.942;2022-07-06T15:59:34;23.00;97.90
9223;DHT22;7557;51.698;3.942;2022-07-06T16:02:01;23.00;98.00
9223;DHT22;7557;51.698;3.942;2022-07-06T16:04:28;22.90;98.00
9223;DHT22;7557;51.698;3.942;2022-07-06T16:06:55;22.90;98.10
9223;DHT22;7557;51.698;3.942;2022-07-06T16:09:22;22.70;98.40